sensor_id;sensor_type;location;lat;lon;timestamp;temperature;humidity
60039;DHT22;45916;52.734;6.544;2023-07-22T00:00:49;13.50;99.90
60039;DHT22;45916;52.734;6.544;2023-07-22T00:03:15;13.50;99.90
60039;DHT22;45916;52.734;6.544;2023-07-22T00:05:42;13.50;99.90
60039;DHT22;45916;52.734;6.544;2023-07-22T00:08:08;13.50;99.90
60039;DHT22;45916;52.734;6.544;2023-07-22T00:10:34;13.40;99.90
60039;DHT22;45916;52.734;6.544;2023-07-22T00:12:59;13.40;99.90
60039;DHT22;45916;52.734;6.544;2023-07-22T00:15:25;13.40;99.90
60039;DHT22;45916;52.734;6.544;2023-07-22T00:17:51;13.40;99.90
60039;DHT22;45916;52.734;6.544;2023-07-22T00:20:17;13.40;99.90
60039;DHT22;45916;52.734;6.544;2023-07-22T00:22:43;13.40;99.90
60039;DHT22;45916;52.734;6.544;2023-07-22T00:25:10;13.40;99.90
60039;DHT22;45916;52.734;6.544;2023-07-22T00:27:41;13.40;99.90
60039;DHT22;45916;52.734;6.544;2023-07-22T00:30:07;13.40;99.90
60039;DHT22;45916;52.734;6.544;2023-07-22T00:32:34;13.40;99.90
60039;DHT22;45916;52.734;6.544;2023-07-22T00:35:03;13.40;99.90
60039;DHT22;45916;52.734;6.544;2023-07-22T00:37:29;13.30;99.90
60039;DHT22;45916;52.734;6.544;2023-07-22T00:39:54;13.20;99.90
60039;DHT22;45916;52.734;6.544;2023-07-22T00:42:20;13.10;99.90
60039;DHT22;45916;52.734;6.544;2023-07-22T00:44:46;13.00;99.90
60039;DHT22;45916;52.734;6.544;2023-07-22T00:47:12;12.90;99.90
60039;DHT22;45916;52.734;6.544;2023-07-22T00:49:38;12.90;99.90
60039;DHT22;45916;52.734;6.544;2023-07-22T00:52:05;12.80;99.90
60039;DHT22;45916;52.734;6.544;2023-07-22T00:54:31;12.70;99.90
60039;DHT22;45916;52.734;6.544;2023-07-22T00:56:57;12.60;99.90
60039;DHT22;45916;52.734;6.544;2023-07-22T00:59:24;12.60;99.90
60039;DHT22;45916;52.734;6.544;2023-07-22T01:01:50;12.50;99.90
60039;DHT22;45916;52.734;6.544;2023-07-22T01:04:19;12.40;99.90
60039;DHT22;45916;52.734;6.544;2023-07-22T01:06:46;12.30;99.90
60039;DHT22;45916;52.734;6.544;2023-07-22T01:09:12;12.20;99.90
60039;DHT22;45916;52.734;6.544;2023-07-22T01:11:39;12.10;99.90
60039;DHT22;45916;52.734;6.544;2023-07-22T01:14:04;12.10;99.90
60039;DHT22;45916;52.734;6.544;2023-07-22T01:16:30;12.00;99.90
60039;DHT22;45916;52.734;6.544;2023-07-22T01:18:56;12.00;99.90
60039;DHT22;45916;52.734;6.544;2023-07-22T01:21:23;12.10;99.90
60039;DHT22;45916;52.734;6.544;2023-07-22T01:23:50;12.10;99.90
60039;DHT22;45916;52.734;6.544;2023-07-22T01:26:16;12.10;99.90
60039;DHT22;45916;52.734;6.544;2023-07-22T01:28:43;12.10;99.90
60039;DHT22;45916;52.734;6.544;2023-07-22T01:31:09;12.10;99.90
60039;DHT22;45916;52.734;6.544;2023-07-22T01:33:35;12.10;99.90
60039;DHT22;45916;52.734;6.544;2023-07-22T01:36:01;12.10;99.90
60039;DHT22;45916;52.734;6.544;2023-07-22T01:38:27;12.10;99.90
60039;DHT22;45916;52.734;6.544;2023-07-22T01:40:55;12.10;99.90
60039;DHT22;45916;52.734;6.544;2023-07-22T01:43:20;12.10;99.90
60039;DHT22;45916;52.734;6.544;2023-07-22T01:45:47;12.10;99.90
60039;DHT22;45916;52.734;6.544;2023-07-22T01:48:12;12.00;99.90
60039;DHT22;45916;52.734;6.544;2023-07-22T01:50:38;12.00;99.90
60039;DHT22;45916;52.734;6.544;2023-07-22T01:53:04;12.00;99.90
60039;DHT22;45916;52.734;6.544;2023-07-22T01:55:31;12.00;99.90
60039;DHT22;45916;52.734;6.544;2023-07-22T01:57:58;12.00;99.90
60039;DHT22;45916;52.734;6.544;2023-07-22T02:00:24;12.00;99.90
60039;DHT22;45916;52.734;6.544;2023-07-22T02:02:49;12.00;99.90
60039;DHT22;45916;52.734;6.544;2023-07-22T02:05:15;12.00;99.90
60039;DHT22;45916;52.734;6.544;2023-07-22T02:07:41;12.00;99.90
60039;DHT22;45916;52.734;6.544;2023-07-22T02:10:07;11.90;99.90
60039;DHT22;45916;52.734;6.544;2023-07-22T02:12:35;12.00;99.90
60039;DHT22;45916;52.734;6.544;2023-07-22T02:15:01;12.00;99.90
60039;DHT22;45916;52.734;6.544;2023-07-22T02:17:28;12.00;99.90
60039;DHT22;45916;52.734;6.544;2023-07-22T02:19:53;12.00;99.90
60039;DHT22;45916;52.734;6.544;2023-07-22T02:22:19;12.00;99.90
60039;DHT22;45916;52.734;6.544;2023-07-22T02:24:45;12.00;99.90
60039;DHT22;45916;52.734;6.544;2023-07-22T02:27:10;12.10;99.90
60039;DHT22;45916;52.734;6.544;2023-07-22T02:29:36;12.20;99.90
60039;DHT22;45916;52.734;6.544;2023-07-22T02:32:02;12.30;99.90
60039;DHT22;45916;52.734;6.544;2023-07-22T02:34:28;12.40;99.90
60039;DHT22;45916;52.734;6.544;2023-07-22T02:36:54;12.50;99.90
60039;DHT22;45916;52.734;6.544;2023-07-22T02:39:20;12.50;99.90
60039;DHT22;45916;52.734;6.544;2023-07-22T02:41:46;12.60;99.90
60039;DHT22;45916;52.734;6.544;2023-07-22T02:44:11;12.60;99.90
60039;DHT22;45916;52.734;6.544;2023-07-22T02:46:38;12.60;99.90
60039;DHT22;45916;52.734;6.544;2023-07-22T02:49:03;12.60;99.90
60039;DHT22;45916;52.734;6.544;2023-07-22T02:51:30;12.60;99.90
60039;DHT22;45916;52.734;6.544;2023-07-22T02:53:56;12.60;99.90
60039;DHT22;45916;52.734;6.544;2023-07-22T02:56:22;12.60;99.90
60039;DHT22;45916;52.734;6.544;2023-07-22T02:58:49;12.70;99.90
60039;DHT22;45916;52.734;6.544;2023-07-22T03:01:15;12.70;99.90
60039;DHT22;45916;52.734;6.544;2023-07-22T03:03:41;12.70;99.90
60039;DHT22;45916;52.734;6.544;2023-07-22T03:06:06;12.70;99.90
60039;DHT22;45916;52.734;6.544;2023-07-22T03:08:33;12.70;99.90
60039;DHT22;45916;52.734;6.544;2023-07-22T03:10:59;12.70;99.90
60039;DHT22;45916;52.734;6.544;2023-07-22T03:13:24;12.70;99.90
60039;DHT22;45916;52.734;6.544;2023-07-22T03:15:55;12.70;99.90
60039;DHT22;45916;52.734;6.544;2023-07-22T03:18:21;12.70;99.90
60039;DHT22;45916;52.734;6.544;2023-07-22T03:20:47;12.70;99.90
60039;DHT22;45916;52.734;6.544;2023-07-22T03:23:12;12.60;99.90
60039;DHT22;45916;52.734;6.544;2023-07-22T03:25:38;12.60;99.90
60039;DHT22;45916;52.734;6.544;2023-07-22T03:28:05;12.60;99.90
60039;DHT22;45916;52.734;6.544;2023-07-22T03:30:31;12.60;99.90
60039;DHT22;45916;52.734;6.544;2023-07-22T03:32:57;12.60;99.90
60039;DHT22;45916;52.734;6.544;2023-07-22T03:35:24;12.60;99.90
60039;DHT22;45916;52.734;6.544;2023-07-22T03:37:50;12.70;99.90
60039;DHT22;45916;52.734;6.544;2023-07-22T03:40:15;12.70;99.90
60039;DHT22;45916;52.734;6.544;2023-07-22T03:42:41;12.70;99.90
60039;DHT22;45916;52.734;6.544;2023-07-22T03:45:07;12.70;99.90
60039;DHT22;45916;52.734;6.544;2023-07-22T03:47:35;12.80;99.90
60039;DHT22;45916;52.734;6.544;2023-07-22T03:50:01;12.80;99.90
60039;DHT22;45916;52.734;6.544;2023-07-22T03:52:27;12.90;99.90
60039;DHT22;45916;52.734;6.544;2023-07-22T03:54:52;12.90;99.90
60039;DHT22;45916;52.734;6.544;2023-07-22T03:57:18;13.00;99.90
60039;DHT22;45916;52.734;6.544;2023-07-22T03:59:44;13.10;99.90
60039;DHT22;45916;52.734;6.544;2023-07-22T04:02:09;13.10;99.90
60039;DHT22;45916;52.734;6.544;2023-07-22T04:04:35;13.20;99.90
60039;DHT22;45916;52.734;6.544;2023-07-22T04:07:01;13.20;99.90
60039;DHT22;45916;52.734;6.544;2023-07-22T04:09:29;13.30;99.90
60039;DHT22;45916;52.734;6.544;2023-07-22T04:11:55;13.40;99.90
60039;DHT22;45916;52.734;6.544;2023-07-22T04:14:21;13.50;99.90
60039;DHT22;45916;52.734;6.544;2023-07-22T04:16:46;13.60;99.90
60039;DHT22;45916;52.734;6.544;2023-07-22T04:19:12;13.60;99.90
60039;DHT22;45916;52.734;6.544;2023-07-22T04:21:38;13.70;99.90
60039;DHT22;45916;52.734;6.544;2023-07-22T04:24:03;13.70;99.90
60039;DHT22;45916;52.734;6.544;2023-07-22T04:26:29;13.70;99.90
60039;DHT22;45916;52.734;6.544;2023-07-22T04:28:55;13.70;99.90
60039;DHT22;45916;52.734;6.544;2023-07-22T04:31:21;13.70;99.90
60039;DHT22;45916;52.734;6.544;2023-07-22T04:33:47;13.70;99.90
60039;DHT22;45916;52.734;6.544;2023-07-22T04:36:12;13.70;99.90
60039;DHT22;45916;52.734;6.544;2023-07-22T04:38:38;13.70;99.90
60039;DHT22;45916;52.734;6.544;2023-07-22T04:41:04;13.70;99.90
60039;DHT22;45916;52.734;6.544;2023-07-22T04:43:30;13.70;99.90
60039;DHT22;45916;52.734;6.544;2023-07-22T04:45:56;13.70;99.90
60039;DHT22;45916;52.734;6.544;2023-07-22T04:48:22;13.70;99.90
60039;DHT22;45916;52.734;6.544;2023-07-22T04:50:49;13.70;99.90
60039;DHT22;45916;52.734;6.544;2023-07-22T04:53:16;13.70;99.90
60039;DHT22;45916;52.734;6.544;2023-07-22T04:55:42;13.80;99.90
60039;DHT22;45916;52.734;6.544;2023-07-22T04:58:08;13.80;99.90
60039;DHT22;45916;52.734;6.544;2023-07-22T05:00:39;13.90;99.90
60039;DHT22;45916;52.734;6.544;2023-07-22T05:03:05;14.00;99.90
60039;DHT22;45916;52.734;6.544;2023-07-22T05:05:32;14.00;99.90
60039;DHT22;45916;52.734;6.544;2023-07-22T05:07:58;14.00;99.90
60039;DHT22;45916;52.734;6.544;2023-07-22T05:10:23;14.00;99.90
60039;DHT22;45916;52.734;6.544;2023-07-22T05:12:49;14.10;99.90
60039;DHT22;45916;52.734;6.544;2023-07-22T05:15:15;14.10;99.90
60039;DHT22;45916;52.734;6.544;2023-07-22T05:17:41;14.10;99.90
60039;DHT22;45916;52.734;6.544;2023-07-22T05:20:07;14.10;99.90
60039;DHT22;45916;52.734;6.544;2023-07-22T05:22:39;14.10;99.90
60039;DHT22;45916;52.734;6.544;2023-07-22T05:25:05;14.10;99.90
60039;DHT22;45916;52.734;6.544;2023-07-22T05:27:31;14.10;99.90
60039;DHT22;45916;52.734;6.544;2023-07-22T05:29:57;14.00;99.90
60039;DHT22;45916;52.734;6.544;2023-07-22T05:32:23;14.00;99.90
60039;DHT22;45916;52.734;6.544;2023-07-22T05:34:48;13.90;99.90
60039;DHT22;45916;52.734;6.544;2023-07-22T05:37:14;14.00;99.90
60039;DHT22;45916;52.734;6.544;2023-07-22T05:39:40;14.00;99.90
60039;DHT22;45916;52.734;6.544;2023-07-22T05:42:06;14.00;99.90
60039;DHT22;45916;52.734;6.544;2023-07-22T05:44:31;14.00;99.90
60039;DHT22;45916;52.734;6.544;2023-07-22T05:46:57;14.10;99.90
60039;DHT22;45916;52.734;6.544;2023-07-22T05:49:23;14.10;99.90
60039;DHT22;45916;52.734;6.544;2023-07-22T05:51:48;14.10;99.90
60039;DHT22;45916;52.734;6.544;2023-07-22T05:54:14;14.10;99.90
60039;DHT22;45916;52.734;6.544;2023-07-22T05:56:40;14.20;99.90
60039;DHT22;45916;52.734;6.544;2023-07-22T05:59:07;14.30;99.90
60039;DHT22;45916;52.734;6.544;2023-07-22T06:01:32;14.40;99.90
60039;DHT22;45916;52.734;6.544;2023-07-22T06:03:58;14.60;99.90
60039;DHT22;45916;52.734;6.544;2023-07-22T06:06:24;14.70;99.90
60039;DHT22;45916;52.734;6.544;2023-07-22T06:08:50;14.90;99.90
60039;DHT22;45916;52.734;6.544;2023-07-22T06:11:15;15.00;99.90
60039;DHT22;45916;52.734;6.544;2023-07-22T06:13:41;15.10;99.90
60039;DHT22;45916;52.734;6.544;2023-07-22T06:16:07;15.20;99.90
60039;DHT22;45916;52.734;6.544;2023-07-22T06:18:32;15.40;99.90
60039;DHT22;45916;52.734;6.544;2023-07-22T06:20:58;15.50;99.90
60039;DHT22;45916;52.734;6.544;2023-07-22T06:23:24;15.50;99.90
60039;DHT22;45916;52.734;6.544;2023-07-22T06:25:49;15.50;99.90
60039;DHT22;45916;52.734;6.544;2023-07-22T06:28:15;15.50;99.90
60039;DHT22;45916;52.734;6.544;2023-07-22T06:30:41;15.50;99.90
60039;DHT22;45916;52.734;6.544;2023-07-22T06:33:07;15.50;99.90
60039;DHT22;45916;52.734;6.544;2023-07-22T06:35:33;15.50;99.90
60039;DHT22;45916;52.734;6.544;2023-07-22T06:37:59;15.30;99.90
60039;DHT22;45916;52.734;6.544;2023-07-22T06:40:25;15.20;99.90
60039;DHT22;45916;52.734;6.544;2023-07-22T06:42:51;15.10;99.90
60039;DHT22;45916;52.734;6.544;2023-07-22T06:45:16;15.10;99.90
60039;DHT22;45916;52.734;6.544;2023-07-22T06:47:42;15.10;99.90
60039;DHT22;45916;52.734;6.544;2023-07-22T06:50:09;15.20;99.90
60039;DHT22;45916;52.734;6.544;2023-07-22T06:52:35;15.30;99.90
60039;DHT22;45916;52.734;6.544;2023-07-22T06:55:01;15.50;99.90
60039;DHT22;45916;52.734;6.544;2023-07-22T06:57:26;15.70;99.90
60039;DHT22;45916;52.734;6.544;2023-07-22T06:59:55;16.00;99.90
60039;DHT22;45916;52.734;6.544;2023-07-22T07:02:22;16.30;99.90
60039;DHT22;45916;52.734;6.544;2023-07-22T07:04:48;16.60;99.90
60039;DHT22;45916;52.734;6.544;2023-07-22T07:07:14;16.80;99.90
60039;DHT22;45916;52.734;6.544;2023-07-22T07:09:40;17.10;99.90
60039;DHT22;45916;52.734;6.544;2023-07-22T07:12:06;17.40;99.90
60039;DHT22;45916;52.734;6.544;2023-07-22T07:14:33;17.70;99.90
60039;DHT22;45916;52.734;6.544;2023-07-22T07:16:59;18.00;99.90
60039;DHT22;45916;52.734;6.544;2023-07-22T07:19:26;18.20;99.90
60039;DHT22;45916;52.734;6.544;2023-07-22T07:21:52;18.20;99.90
60039;DHT22;45916;52.734;6.544;2023-07-22T07:24:18;18.10;99.90
60039;DHT22;45916;52.734;6.544;2023-07-22T07:26:43;18.10;99.90
60039;DHT22;45916;52.734;6.544;2023-07-22T07:29:10;18.20;99.90
60039;DHT22;45916;52.734;6.544;2023-07-22T07:31:36;18.30;99.90
60039;DHT22;45916;52.734;6.544;2023-07-22T07:34:02;18.40;99.90
60039;DHT22;45916;52.734;6.544;2023-07-22T07:36:28;18.50;99.90
60039;DHT22;45916;52.734;6.544;2023-07-22T07:38:53;18.60;99.90
60039;DHT22;45916;52.734;6.544;2023-07-22T07:41:19;18.70;99.90
60039;DHT22;45916;52.734;6.544;2023-07-22T07:43:45;18.90;99.90
60039;DHT22;45916;52.734;6.544;2023-07-22T07:46:26;19.10;99.90
60039;DHT22;45916;52.734;6.544;2023-07-22T07:48:56;19.40;99.90
60039;DHT22;45916;52.734;6.544;2023-07-22T07:51:24;20.00;99.90
60039;DHT22;45916;52.734;6.544;2023-07-22T07:53:52;20.20;99.90
60039;DHT22;45916;52.734;6.544;2023-07-22T07:56:18;20.30;99.90
60039;DHT22;45916;52.734;6.544;2023-07-22T07:58:46;20.30;99.90
60039;DHT22;45916;52.734;6.544;2023-07-22T08:01:12;20.30;99.90
60039;DHT22;45916;52.734;6.544;2023-07-22T08:03:39;20.20;99.90
60039;DHT22;45916;52.734;6.544;2023-07-22T08:06:07;20.30;99.90
60039;DHT22;45916;52.734;6.544;2023-07-22T08:08:33;20.50;99.90
60039;DHT22;45916;52.734;6.544;2023-07-22T08:11:04;20.60;99.90
60039;DHT22;45916;52.734;6.544;2023-07-22T08:13:30;20.70;99.90
60039;DHT22;45916;52.734;6.544;2023-07-22T08:15:58;20.70;99.90
60039;DHT22;45916;52.734;6.544;2023-07-22T08:18:24;20.60;99.90
60039;DHT22;45916;52.734;6.544;2023-07-22T08:20:51;20.80;99.90
60039;DHT22;45916;52.734;6.544;2023-07-22T08:23:18;21.10;99.90
60039;DHT22;45916;52.734;6.544;2023-07-22T08:25:43;21.40;99.90
60039;DHT22;45916;52.734;6.544;2023-07-22T08:28:09;21.50;99.90
60039;DHT22;45916;52.734;6.544;2023-07-22T08:30:35;21.60;99.90
60039;DHT22;45916;52.734;6.544;2023-07-22T08:33:01;21.90;99.90
60039;DHT22;45916;52.734;6.544;2023-07-22T08:35:26;22.90;99.90
60039;DHT22;45916;52.734;6.544;2023-07-22T08:37:52;24.20;99.90
60039;DHT22;45916;52.734;6.544;2023-07-22T08:40:19;26.10;99.10
60039;DHT22;45916;52.734;6.544;2023-07-22T08:42:46;27.20;93.00
60039;DHT22;45916;52.734;6.544;2023-07-22T08:45:13;27.20;89.30
60039;DHT22;45916;52.734;6.544;2023-07-22T08:47:46;26.90;87.90
60039;DHT22;45916;52.734;6.544;2023-07-22T08:50:18;26.30;87.40
60039;DHT22;45916;52.734;6.544;2023-07-22T08:52:45;25.80;87.50
60039;DHT22;45916;52.734;6.544;2023-07-22T08:55:12;24.90;88.00
60039;DHT22;45916;52.734;6.544;2023-07-22T08:57:39;24.10;90.70
60039;DHT22;45916;52.734;6.544;2023-07-22T09:00:06;23.40;93.00
60039;DHT22;45916;52.734;6.544;2023-07-22T09:02:35;23.00;94.90
60039;DHT22;45916;52.734;6.544;2023-07-22T09:05:02;22.80;96.50
60039;DHT22;45916;52.734;6.544;2023-07-22T09:07:28;22.50;97.20
60039;DHT22;45916;52.734;6.544;2023-07-22T09:09:56;22.20;97.40
60039;DHT22;45916;52.734;6.544;2023-07-22T09:12:22;22.10;98.10
60039;DHT22;45916;52.734;6.544;2023-07-22T09:14:48;21.80;98.50
60039;DHT22;45916;52.734;6.544;2023-07-22T09:17:15;21.40;99.40
60039;DHT22;45916;52.734;6.544;2023-07-22T09:19:40;20.90;99.90
60039;DHT22;45916;52.734;6.544;2023-07-22T09:22:09;20.40;99.90
60039;DHT22;45916;52.734;6.544;2023-07-22T09:24:35;19.90;99.90
60039;DHT22;45916;52.734;6.544;2023-07-22T09:27:00;19.60;99.90
60039;DHT22;45916;52.734;6.544;2023-07-22T09:29:33;19.30;99.90
60039;DHT22;45916;52.734;6.544;2023-07-22T09:31:59;19.00;99.90
60039;DHT22;45916;52.734;6.544;2023-07-22T09:34:25;18.30;99.90
60039;DHT22;45916;52.734;6.544;2023-07-22T09:39:17;17.70;99.90
60039;DHT22;45916;52.734;6.544;2023-07-22T09:41:43;17.80;99.90
60039;DHT22;45916;52.734;6.544;2023-07-22T09:44:09;18.20;99.90
60039;DHT22;45916;52.734;6.544;2023-07-22T09:46:36;18.70;99.90
60039;DHT22;45916;52.734;6.544;2023-07-22T09:49:05;19.20;99.90
60039;DHT22;45916;52.734;6.544;2023-07-22T09:51:50;19.80;99.90
60039;DHT22;45916;52.734;6.544;2023-07-22T09:54:16;20.30;99.90
60039;DHT22;45916;52.734;6.544;2023-07-22T09:56:45;20.80;99.90
60039;DHT22;45916;52.734;6.544;2023-07-22T09:59:11;21.10;99.90
60039;DHT22;45916;52.734;6.544;2023-07-22T10:01:37;21.30;99.90
60039;DHT22;45916;52.734;6.544;2023-07-22T10:04:04;21.30;99.90
60039;DHT22;45916;52.734;6.544;2023-07-22T10:06:29;21.40;99.90
60039;DHT22;45916;52.734;6.544;2023-07-22T10:08:56;21.30;99.90
60039;DHT22;45916;52.734;6.544;2023-07-22T10:11:22;21.30;99.90
60039;DHT22;45916;52.734;6.544;2023-07-22T10:13:48;21.40;99.90
60039;DHT22;45916;52.734;6.544;2023-07-22T10:16:14;21.50;99.90
60039;DHT22;45916;52.734;6.544;2023-07-22T10:18:40;21.60;99.90
60039;DHT22;45916;52.734;6.544;2023-07-22T10:21:08;21.60;99.90
60039;DHT22;45916;52.734;6.544;2023-07-22T10:23:34;21.70;99.90
60039;DHT22;45916;52.734;6.544;2023-07-22T10:26:00;21.50;99.90
60039;DHT22;45916;52.734;6.544;2023-07-22T10:28:26;21.20;99.90
60039;DHT22;45916;52.734;6.544;2023-07-22T10:30:53;20.70;99.90
60039;DHT22;45916;52.734;6.544;2023-07-22T10:33:19;20.20;99.90
60039;DHT22;45916;52.734;6.544;2023-07-22T10:38:30;19.40;99.90
60039;DHT22;45916;52.734;6.544;2023-07-22T10:40:55;19.30;99.90
60039;DHT22;45916;52.734;6.544;2023-07-22T10:43:25;19.10;99.90
60039;DHT22;45916;52.734;6.544;2023-07-22T10:45:53;19.10;99.90
60039;DHT22;45916;52.734;6.544;2023-07-22T10:48:19;19.10;99.90
60039;DHT22;45916;52.734;6.544;2023-07-22T10:50:45;19.20;99.90
60039;DHT22;45916;52.734;6.544;2023-07-22T11:01:22;18.80;99.90
60039;DHT22;45916;52.734;6.544;2023-07-22T11:06:41;18.70;99.90
60039;DHT22;45916;52.734;6.544;2023-07-22T11:14:23;18.60;99.90
60039;DHT22;45916;52.734;6.544;2023-07-22T11:16:49;18.60;99.90
60039;DHT22;45916;52.734;6.544;2023-07-22T11:19:16;18.50;99.90
60039;DHT22;45916;52.734;6.544;2023-07-22T11:21:42;18.40;99.90
60039;DHT22;45916;52.734;6.544;2023-07-22T11:24:07;18.20;99.90
60039;DHT22;45916;52.734;6.544;2023-07-22T11:26:33;18.10;99.90
60039;DHT22;45916;52.734;6.544;2023-07-22T11:28:59;18.00;99.90
60039;DHT22;45916;52.734;6.544;2023-07-22T11:31:30;17.90;99.90
60039;DHT22;45916;52.734;6.544;2023-07-22T11:33:55;17.90;99.90
60039;DHT22;45916;52.734;6.544;2023-07-22T11:36:22;17.90;99.90
60039;DHT22;45916;52.734;6.544;2023-07-22T11:38:48;18.00;99.90
60039;DHT22;45916;52.734;6.544;2023-07-22T11:41:13;18.10;99.90
60039;DHT22;45916;52.734;6.544;2023-07-22T11:43:40;18.30;99.90
60039;DHT22;45916;52.734;6.544;2023-07-22T11:46:05;18.50;99.90
60039;DHT22;45916;52.734;6.544;2023-07-22T11:48:31;18.60;99.90
60039;DHT22;45916;52.734;6.544;2023-07-22T11:51:00;18.70;99.90
60039;DHT22;45916;52.734;6.544;2023-07-22T11:53:26;18.80;99.90
60039;DHT22;45916;52.734;6.544;2023-07-22T11:55:54;18.90;99.90
60039;DHT22;45916;52.734;6.544;2023-07-22T11:58:28;19.00;99.90
60039;DHT22;45916;52.734;6.544;2023-07-22T12:01:06;18.90;99.90
60039;DHT22;45916;52.734;6.544;2023-07-22T12:03:35;18.90;99.90
60039;DHT22;45916;52.734;6.544;2023-07-22T12:06:03;19.00;99.90
60039;DHT22;45916;52.734;6.544;2023-07-22T12:08:31;19.00;99.90
60039;DHT22;45916;52.734;6.544;2023-07-22T12:10:59;19.00;99.90
60039;DHT22;45916;52.734;6.544;2023-07-22T12:13:25;19.00;99.90
60039;DHT22;45916;52.734;6.544;2023-07-22T12:16:01;19.00;99.90
60039;DHT22;45916;52.734;6.544;2023-07-22T12:18:26;18.90;99.90
60039;DHT22;45916;52.734;6.544;2023-07-22T12:20:52;18.70;99.90
60039;DHT22;45916;52.734;6.544;2023-07-22T12:23:17;18.60;99.90
60039;DHT22;45916;52.734;6.544;2023-07-22T12:25:44;18.40;99.90
60039;DHT22;45916;52.734;6.544;2023-07-22T12:28:09;18.10;99.90
60039;DHT22;45916;52.734;6.544;2023-07-22T12:30:36;18.00;99.90
60039;DHT22;45916;52.734;6.544;2023-07-22T12:33:02;18.00;99.90
60039;DHT22;45916;52.734;6.544;2023-07-22T12:35:28;17.90;99.90
60039;DHT22;45916;52.734;6.544;2023-07-22T12:37:53;17.90;99.90
60039;DHT22;45916;52.734;6.544;2023-07-22T12:40:19;17.80;99.90
60039;DHT22;45916;52.734;6.544;2023-07-22T12:42:46;17.80;99.90
60039;DHT22;45916;52.734;6.544;2023-07-22T12:45:12;17.70;99.90
60039;DHT22;45916;52.734;6.544;2023-07-22T12:47:38;17.60;99.90
60039;DHT22;45916;52.734;6.544;2023-07-22T12:50:04;17.50;99.90
60039;DHT22;45916;52.734;6.544;2023-07-22T12:52:29;17.40;99.90
60039;DHT22;45916;52.734;6.544;2023-07-22T12:54:55;17.30;99.90
60039;DHT22;45916;52.734;6.544;2023-07-22T12:57:21;17.20;99.90
60039;DHT22;45916;52.734;6.544;2023-07-22T12:59:46;17.20;99.90
60039;DHT22;45916;52.734;6.544;2023-07-22T13:02:12;17.10;99.90
60039;DHT22;45916;52.734;6.544;2023-07-22T13:04:38;17.10;99.90
60039;DHT22;45916;52.734;6.544;2023-07-22T13:07:03;17.10;99.90
60039;DHT22;45916;52.734;6.544;2023-07-22T13:09:29;17.10;99.90
60039;DHT22;45916;52.734;6.544;2023-07-22T13:11:54;17.10;99.90
60039;DHT22;45916;52.734;6.544;2023-07-22T13:14:20;17.20;99.90
60039;DHT22;45916;52.734;6.544;2023-07-22T13:16:46;17.20;99.90
60039;DHT22;45916;52.734;6.544;2023-07-22T13:19:11;17.30;99.90
60039;DHT22;45916;52.734;6.544;2023-07-22T13:21:37;17.30;99.90
60039;DHT22;45916;52.734;6.544;2023-07-22T13:24:02;17.40;99.90
60039;DHT22;45916;52.734;6.544;2023-07-22T13:26:28;17.40;99.90
60039;DHT22;45916;52.734;6.544;2023-07-22T13:28:54;17.40;99.90
60039;DHT22;45916;52.734;6.544;2023-07-22T13:31:19;17.60;99.90
60039;DHT22;45916;52.734;6.544;2023-07-22T13:33:45;17.70;99.90
60039;DHT22;45916;52.734;6.544;2023-07-22T13:36:10;18.00;99.90
60039;DHT22;45916;52.734;6.544;2023-07-22T13:38:36;17.90;99.90
60039;DHT22;45916;52.734;6.544;2023-07-22T13:41:02;18.00;99.90
60039;DHT22;45916;52.734;6.544;2023-07-22T13:43:27;18.10;99.90
60039;DHT22;45916;52.734;6.544;2023-07-22T13:45:53;18.20;99.90
60039;DHT22;45916;52.734;6.544;2023-07-22T13:48:19;18.30;99.90
60039;DHT22;45916;52.734;6.544;2023-07-22T13:50:45;18.40;99.90
60039;DHT22;45916;52.734;6.544;2023-07-22T13:53:10;18.40;99.90
60039;DHT22;45916;52.734;6.544;2023-07-22T13:55:41;18.40;99.90
60039;DHT22;45916;52.734;6.544;2023-07-22T13:58:07;18.40;99.90
60039;DHT22;45916;52.734;6.544;2023-07-22T14:00:35;18.40;99.90
60039;DHT22;45916;52.734;6.544;2023-07-22T14:03:00;18.20;99.90
60039;DHT22;45916;52.734;6.544;2023-07-22T14:05:26;18.00;99.90
60039;DHT22;45916;52.734;6.544;2023-07-22T14:07:52;18.00;99.90
60039;DHT22;45916;52.734;6.544;2023-07-22T14:10:18;18.00;99.90
60039;DHT22;45916;52.734;6.544;2023-07-22T14:12:43;17.90;99.90
60039;DHT22;45916;52.734;6.544;2023-07-22T14:15:09;17.80;99.90
60039;DHT22;45916;52.734;6.544;2023-07-22T14:17:35;17.70;99.90
60039;DHT22;45916;52.734;6.544;2023-07-22T14:20:03;17.60;99.90
60039;DHT22;45916;52.734;6.544;2023-07-22T14:22:30;17.70;99.90
60039;DHT22;45916;52.734;6.544;2023-07-22T14:24:55;17.70;99.90
60039;DHT22;45916;52.734;6.544;2023-07-22T14:27:21;17.80;99.90
60039;DHT22;45916;52.734;6.544;2023-07-22T14:29:47;17.80;99.90
60039;DHT22;45916;52.734;6.544;2023-07-22T14:32:12;17.90;99.90
60039;DHT22;45916;52.734;6.544;2023-07-22T14:34:38;17.90;99.90
60039;DHT22;45916;52.734;6.544;2023-07-22T14:37:03;17.90;99.90
60039;DHT22;45916;52.734;6.544;2023-07-22T14:39:30;17.90;99.90
60039;DHT22;45916;52.734;6.544;2023-07-22T14:41:55;17.80;99.90
60039;DHT22;45916;52.734;6.544;2023-07-22T14:44:21;17.80;99.90
60039;DHT22;45916;52.734;6.544;2023-07-22T14:46:46;17.70;99.90
60039;DHT22;45916;52.734;6.544;2023-07-22T14:49:12;17.60;99.90
60039;DHT22;45916;52.734;6.544;2023-07-22T14:51:38;17.50;99.90
60039;DHT22;45916;52.734;6.544;2023-07-22T14:54:03;17.50;99.90
60039;DHT22;45916;52.734;6.544;2023-07-22T14:56:29;17.40;99.90
60039;DHT22;45916;52.734;6.544;2023-07-22T14:58:55;17.50;99.90
60039;DHT22;45916;52.734;6.544;2023-07-22T15:01:23;17.50;99.90
60039;DHT22;45916;52.734;6.544;2023-07-22T15:03:49;17.50;99.90
60039;DHT22;45916;52.734;6.544;2023-07-22T15:06:17;17.50;99.90
60039;DHT22;45916;52.734;6.544;2023-07-22T15:08:43;17.50;99.90
60039;DHT22;45916;52.734;6.544;2023-07-22T15:11:08;17.60;99.90
60039;DHT22;45916;52.734;6.544;2023-07-22T15:13:34;17.60;99.90
60039;DHT22;45916;52.734;6.544;2023-07-22T15:16:00;17.70;99.90
60039;DHT22;45916;52.734;6.544;2023-07-22T15:18:25;17.70;99.90
60039;DHT22;45916;52.734;6.544;2023-07-22T15:20:51;17.70;99.90
60039;DHT22;45916;52.734;6.544;2023-07-22T15:23:17;17.60;99.90
60039;DHT22;45916;52.734;6.544;2023-07-22T15:25:43;17.70;99.90
60039;DHT22;45916;52.734;6.544;2023-07-22T15:28:08;17.70;99.90
60039;DHT22;45916;52.734;6.544;2023-07-22T15:30:34;17.70;99.90
60039;DHT22;45916;52.734;6.544;2023-07-22T15:33:00;17.80;99.90
60039;DHT22;45916;52.734;6.544;2023-07-22T15:35:25;17.80;99.90
60039;DHT22;45916;52.734;6.544;2023-07-22T15:37:51;17.70;99.90
60039;DHT22;45916;52.734;6.544;2023-07-22T15:40:18;17.60;99.90
60039;DHT22;45916;52.734;6.544;2023-07-22T15:42:44;17.60;99.90
60039;DHT22;45916;52.734;6.544;2023-07-22T15:45:09;17.50;99.90